Time;durP1;ratioP1;P1;durP2;ratioP2;P2;SDS_P1;SDS_P2;PMS_P1;PMS_P2;Temp;Humidity;BMP_temperature;BMP_pressure;BME280_temperature;BME280_humidity;BME280_pressure;Samples;Min_cycle;Max_cycle;Signal;HPM_P1;HPM_P2
2022/01/16 00:01:06;;;;;;;13.93;5.60;;;;;;;-1.24;57.01;94756.63;5021277;28;20072;-76
2022/01/16 00:06:17;;;;;;;13.25;5.25;;;;;;;-1.27;58.27;94746.59;5021628;28;20029;-73
2022/01/16 00:08:43;;;;;;;10.70;5.50;;;;;;;-1.32;59.72;94728.94;5022491;28;20017;-73
2022/01/16 00:11:09;;;;;;;10.48;5.00;;;;;;;-1.28;60.99;94729.31;5022184;28;20018;-73
2022/01/16 00:13:34;;;;;;;13.02;5.55;;;;;;;-1.23;61.02;94732.06;5022233;28;20056;-73
2022/01/16 00:16:00;;;;;;;9.57;4.75;;;;;;;-1.31;63.38;94751.47;5036758;28;20033;-73
2022/01/16 00:18:28;;;;;;;13.50;5.07;;;;;;;-1.31;63.52;94759.31;5021097;28;20025;-74
2022/01/16 00:20:54;;;;;;;17.17;5.50;;;;;;;-1.27;63.73;94777.97;5022223;28;20025;-73
2022/01/16 00:23:25;;;;;;;12.48;5.30;;;;;;;-1.25;64.30;94789.03;5022191;28;20060;-73
2022/01/16 00:25:52;;;;;;;16.30;5.53;;;;;;;-1.21;64.36;94811.13;5022297;28;20056;-73
2022/01/16 00:28:18;;;;;;;11.98;5.22;;;;;;;-1.16;64.34;94813.91;5022125;28;20018;-74
2022/01/16 00:30:44;;;;;;;14.70;5.50;;;;;;;-1.14;64.33;94843.28;5022265;28;20056;-74
2022/01/16 00:33:09;;;;;;;12.55;4.97;;;;;;;-1.18;64.48;94844.72;5022160;28;20017;-74
2022/01/16 00:35:35;;;;;;;12.50;4.97;;;;;;;-1.15;64.81;94736.22;5022357;28;20037;-73
2022/01/16 00:38:04;;;;;;;8.07;3.92;;;;;;;-1.13;64.46;94734.97;5022054;28;20235;-73
2022/01/16 00:40:29;;;;;;;9.40;5.15;;;;;;;-1.13;64.30;94803.00;5022068;28;20021;-73
2022/01/16 00:42:56;;;;;;;10.07;4.78;;;;;;;-1.13;64.79;94727.13;5022037;28;20257;-73
2022/01/16 00:45:22;;;;;;;11.85;4.22;;;;;;;-1.11;64.19;94645.81;5022378;28;20045;-73
2022/01/16 00:47:48;;;;;;;7.55;3.90;;;;;;;-1.21;65.01;94704.66;5025534;28;20029;-73
2022/01/16 00:50:13;;;;;;;11.63;4.15;;;;;;;-1.19;65.16;94649.53;5025555;28;20018;-74
2022/01/16 00:52:39;;;;;;;9.40;4.18;;;;;;;-1.22;65.02;94589.81;5025412;28;20025;-73
2022/01/16 00:55:05;;;;;;;9.75;4.40;;;;;;;-1.24;65.05;94633.69;5025488;28;20339;-73
2022/01/16 00:57:31;;;;;;;12.13;4.85;;;;;;;-1.22;64.76;94619.38;5025540;28;20026;-73
2022/01/16 00:59:56;;;;;;;12.63;4.00;;;;;;;-1.31;64.93;94646.03;5025480;28;20043;-73
2022/01/16 01:02:23;;;;;;;8.90;3.70;;;;;;;-1.29;65.09;94672.78;5025316;28;20025;-73
2022/01/16 01:04:49;;;;;;;9.88;4.45;;;;;;;-1.22;64.99;94710.13;5025217;28;20036;-74
2022/01/16 01:07:15;;;;;;;12.45;5.20;;;;;;;-1.24;64.55;94701.72;5025266;28;20029;-73
2022/01/16 01:09:40;;;;;;;9.48;4.55;;;;;;;-1.19;64.11;94694.00;5025295;28;20036;-73
2022/01/16 01:12:09;;;;;;;8.77;4.70;;;;;;;-1.26;64.80;94719.44;5025120;28;21960;-73
2022/01/16 01:14:40;;;;;;;10.40;4.70;;;;;;;-1.21;64.64;94730.03;5025037;28;20339;-72
2022/01/16 01:17:08;;;;;;;9.43;4.30;;;;;;;-1.20;64.63;94689.78;5025406;28;20216;-73
2022/01/16 01:19:35;;;;;;;11.10;4.85;;;;;;;-1.22;64.68;94682.16;5025087;28;20037;-74
2022/01/16 01:22:02;;;;;;;12.00;4.43;;;;;;;-1.17;64.30;94707.66;5025276;28;20062;-75
2022/01/16 01:24:30;;;;;;;8.35;4.43;;;;;;;-1.19;64.16;94675.69;5025014;28;20030;-73
2022/01/16 01:29:29;;;;;;;10.95;4.30;;;;;;;-1.21;64.12;94711.72;5025082;28;20047;-73
2022/01/16 01:31:55;;;;;;;10.82;4.97;;;;;;;-1.12;63.99;94699.97;5024827;28;20026;-73
2022/01/16 01:34:21;;;;;;;8.70;4.82;;;;;;;-1.12;63.55;94684.25;5024779;28;20307;-73
2022/01/16 01:36:48;;;;;;;9.82;4.05;;;;;;;-1.13;63.18;94708.81;5024546;28;20025;-73
2022/01/16 01:39:18;;;;;;;11.57;4.45;;;;;;;-1.16;63.23;94716.28;5024756;28;20025;-73
2022/01/16 01:41:44;;;;;;;11.93;3.70;;;;;;;-1.19;63.02;94720.16;5024424;28;20071;-73
2022/01/16 01:52:21;;;;;;;8.52;4.40;;;;;;;-1.10;63.67;94758.09;5024307;28;20068;-73
2022/01/16 01:54:47;;;;;;;9.05;3.63;;;;;;;-1.09;63.37;94746.59;5024648;28;20022;-73
2022/01/16 01:57:13;;;;;;;11.02;4.60;;;;;;;-1.10;63.73;94749.44;5023708;28;20316;-73
2022/01/16 01:59:39;;;;;;;10.98;4.55;;;;;;;-1.11;63.98;94753.88;5024262;28;20227;-73
2022/01/16 02:02:07;;;;;;;8.15;4.18;;;;;;;-1.09;64.13;94743.19;5024373;28;20084;-74
2022/01/16 02:04:33;;;;;;;7.63;3.85;;;;;;;-1.08;63.86;94732.50;5024099;28;20296;-73
2022/01/16 02:06:58;;;;;;;11.10;4.68;;;;;;;-1.09;64.08;94740.56;5024346;28;20030;-73
2022/01/16 02:09:24;;;;;;;8.35;3.92;;;;;;;-1.05;63.92;94760.84;5024235;28;20252;-73
2022/01/16 02:11:52;;;;;;;8.30;4.40;;;;;;;-1.06;64.27;94764.50;5024146;28;20022;-73
2022/01/16 02:14:31;;;;;;;9.02;3.95;;;;;;;-0.98;63.69;94747.69;5024199;28;20022;-74
2022/01/16 02:28:13;;;;;;;9.52;4.32;;;;;;;-1.01;64.00;94746.31;5026201;28;20036;-75
2022/01/16 02:31:02;;;;;;;12.98;5.40;;;;;;;-1.10;64.46;94750.25;5023815;28;20372;-74
2022/01/16 02:36:28;;;;;;;13.23;5.25;;;;;;;-1.31;64.06;94748.84;5012786;28;20030;-74
2022/01/16 02:39:00;;;;;;;14.65;5.47;;;;;;;-1.38;64.53;94742.06;5023722;28;20061;-74
2022/01/16 02:41:25;;;;;;;10.35;5.88;;;;;;;-1.47;64.50;94737.13;5023510;28;20037;-74
2022/01/16 02:43:52;;;;;;;12.20;6.68;;;;;;;-1.51;64.79;94729.94;5023573;28;20029;-74
2022/01/16 02:48:45;;;;;;;16.25;7.57;;;;;;;-1.65;66.13;94734.47;5023270;28;20026;-74
2022/01/16 02:51:14;;;;;;;12.98;6.35;;;;;;;-1.71;66.41;94738.78;5023520;28;20216;-74
2022/01/16 02:53:40;;;;;;;15.00;7.15;;;;;;;-1.89;67.12;94731.69;5023471;28;20108;-74
2022/01/16 02:56:05;;;;;;;16.30;7.13;;;;;;;-1.97;68.45;94729.34;5023285;28;20228;-74
2022/01/16 02:58:31;;;;;;;18.48;8.07;;;;;;;-2.02;69.01;94737.00;5023193;28;20224;-74
2022/01/16 03:00:56;;;;;;;11.77;6.50;;;;;;;-2.14;69.95;94733.47;5022852;28;20399;-74
2022/01/16 03:03:25;;;;;;;22.55;8.07;;;;;;;-2.14;69.89;94733.47;5023071;28;20224;-74
2022/01/16 03:05:50;;;;;;;16.10;8.38;;;;;;;-2.18;70.13;94733.09;5023135;28;20331;-74
2022/01/16 03:08:16;;;;;;;13.13;7.38;;;;;;;-2.15;70.42;94737.91;5023132;28;20032;-74
2022/01/16 03:11:09;;;;;;;19.58;8.90;;;;;;;-2.25;70.62;94738.38;5022202;28;20020;-74
2022/01/16 03:13:32;;;;;;;16.02;7.85;;;;;;;-2.36;70.61;94733.03;5022585;28;20224;-74
2022/01/16 03:15:58;;;;;;;21.33;9.75;;;;;;;-2.45;71.03;94729.88;5023020;28;20029;-74
2022/01/16 03:23:33;;;;;;;20.65;8.10;;;;;;;-2.53;72.33;94733.53;5023070;28;20072;-74
2022/01/16 03:26:00;;;;;;;14.43;7.65;;;;;;;-2.45;72.39;94735.09;5022781;28;20338;-74
2022/01/16 03:28:26;;;;;;;16.58;7.75;;;;;;;-2.43;72.28;94726.03;5022744;28;20056;-74
2022/01/16 03:30:52;;;;;;;17.88;7.78;;;;;;;-2.39;71.97;94729.03;5022852;28;20022;-74
2022/01/16 03:33:20;;;;;;;21.15;7.47;;;;;;;-2.46;71.58;94734.31;5022720;28;20022;-74
2022/01/16 03:35:46;;;;;;;15.80;7.60;;;;;;;-2.46;71.11;94739.53;5022760;28;20022;-74
2022/01/16 03:38:11;;;;;;;15.82;7.40;;;;;;;-2.42;71.35;94745.94;5022620;28;20049;-74
2022/01/16 03:40:37;;;;;;;15.80;6.88;;;;;;;-2.48;70.95;94759.03;5022645;28;20049;-74
2022/01/16 03:43:11;;;;;;;18.75;6.60;;;;;;;-2.53;71.73;94756.22;5038095;28;20033;-74
2022/01/16 03:45:37;;;;;;;22.73;8.23;;;;;;;-2.47;71.34;94758.78;5022717;28;20033;-75
2022/01/16 03:48:03;;;;;;;14.00;7.00;;;;;;;-2.56;72.18;94777.53;5023002;28;20033;-75
2022/01/16 03:50:28;;;;;;;13.00;7.22;;;;;;;-2.59;72.67;94755.25;5022373;28;20251;-75
2022/01/16 03:52:54;;;;;;;18.25;6.78;;;;;;;-2.56;72.80;94754.06;5022587;28;20030;-74
2022/01/16 03:55:20;;;;;;;14.50;6.60;;;;;;;-2.67;73.42;94751.06;5022703;28;20304;-74
2022/01/16 03:57:45;;;;;;;12.65;7.25;;;;;;;-2.64;73.07;94755.88;5022422;28;20021;-74
2022/01/16 04:00:11;;;;;;;14.02;7.15;;;;;;;-2.66;73.50;94751.88;5022448;28;20056;-74
2022/01/16 04:02:36;;;;;;;13.68;7.05;;;;;;;-2.66;73.32;94757.91;5022285;28;20029;-74
2022/01/16 04:05:02;;;;;;;19.90;7.72;;;;;;;-2.60;72.85;94758.09;5022725;28;20032;-74
2022/01/16 04:07:34;;;;;;;14.35;7.95;;;;;;;-2.56;72.89;94767.91;5022426;28;20045;-74
2022/01/16 04:09:59;;;;;;;24.05;7.55;;;;;;;-2.58;72.56;94764.69;5022337;28;20025;-74
2022/01/16 04:12:25;;;;;;;13.48;7.13;;;;;;;-2.58;72.68;94774.34;5022259;28;20034;-74
2022/01/16 04:17:18;;;;;;;15.27;6.28;;;;;;;-2.74;72.85;94770.41;5022281;28;20018;-75
2022/01/16 04:19:45;;;;;;;16.58;7.13;;;;;;;-2.68;72.85;94764.34;5022345;28;20217;-74
2022/01/16 04:22:11;;;;;;;19.27;8.10;;;;;;;-2.73;72.69;94774.59;5025498;28;20017;-74
2022/01/16 04:24:37;;;;;;;18.30;7.93;;;;;;;-2.70;72.34;94788.03;5026020;28;20070;-74
2022/01/16 04:27:04;;;;;;;13.95;7.25;;;;;;;-2.72;72.52;94782.22;5026201;28;20018;-74
2022/01/16 04:29:29;;;;;;;12.73;6.60;;;;;;;-2.80;72.51;94789.50;5026010;28;20212;-75
2022/01/16 04:31:56;;;;;;;18.50;6.90;;;;;;;-2.78;72.34;94790.88;5026096;28;20040;-71
2022/01/16 04:34:21;;;;;;;11.63;6.38;;;;;;;-2.78;72.40;94783.03;5025910;28;20045;-73
2022/01/16 04:36:47;;;;;;;17.38;7.70;;;;;;;-2.73;72.28;94785.81;5025781;28;20201;-74
2022/01/16 04:39:16;;;;;;;13.68;6.60;;;;;;;-2.95;72.98;94795.75;5025918;28;20312;-74
2022/01/16 04:44:26;;;;;;;14.35;6.55;;;;;;;-2.87;72.57;94786.88;5025743;28;20048;-75
2022/01/16 04:46:52;;;;;;;15.93;6.97;;;;;;;-2.75;72.41;94790.44;5025476;28;20049;-75
2022/01/16 04:49:18;;;;;;;13.73;5.80;;;;;;;-2.76;72.01;94783.63;5025548;28;20030;-74
2022/01/16 04:51:44;;;;;;;18.88;7.30;;;;;;;-2.72;71.58;94779.59;5025662;28;20025;-74
2022/01/16 04:54:09;;;;;;;13.55;6.55;;;;;;;-2.68;71.60;94775.56;5024478;28;20026;-74
2022/01/16 04:56:34;;;;;;;15.82;6.95;;;;;;;-2.69;71.66;94776.56;5041147;28;20116;-74
2022/01/16 04:59:00;;;;;;;11.65;6.22;;;;;;;-2.64;72.01;94781.97;5025563;28;20028;-74
2022/01/16 05:01:25;;;;;;;13.30;6.75;;;;;;;-2.61;71.56;94778.16;5025350;28;20339;-74
2022/01/16 05:03:51;;;;;;;17.77;8.10;;;;;;;-2.60;71.72;94776.34;5024121;28;20032;-74
2022/01/16 05:06:17;;;;;;;16.13;7.47;;;;;;;-2.58;71.51;94779.56;5025512;28;20026;-74
2022/01/16 05:08:42;;;;;;;14.80;6.72;;;;;;;-2.56;71.36;94767.09;5040838;28;20216;-74
2022/01/16 05:11:09;;;;;;;16.00;6.68;;;;;;;-2.51;71.52;94775.09;5025201;28;20304;-74
2022/01/16 05:18:48;;;;;;;17.20;7.15;;;;;;;-2.48;71.67;94777.31;5025245;28;20256;-74
2022/01/16 05:21:13;;;;;;;16.52;6.85;;;;;;;-2.48;71.08;94774.69;5025069;28;20026;-74
2022/01/16 05:23:41;;;;;;;16.13;6.07;;;;;;;-2.51;71.18;94775.88;5025270;28;20109;-74
2022/01/16 05:26:07;;;;;;;16.13;7.22;;;;;;;-2.53;71.33;94775.28;5025168;28;20251;-74
2022/01/16 05:28:32;;;;;;;18.13;7.35;;;;;;;-2.47;71.11;94781.50;5025136;28;20033;-74
2022/01/16 05:30:57;;;;;;;17.17;7.40;;;;;;;-2.50;71.35;94784.53;5024908;28;20061;-74
2022/01/16 05:33:23;;;;;;;20.40;8.07;;;;;;;-2.50;71.56;94780.09;5023748;28;20025;-74
2022/01/16 05:35:49;;;;;;;15.82;7.18;;;;;;;-2.42;71.11;94784.28;5024691;28;20030;-74
2022/01/16 05:38:14;;;;;;;11.90;6.32;;;;;;;-2.45;70.87;94782.88;5024913;28;20054;-74
2022/01/16 05:40:40;;;;;;;16.58;7.50;;;;;;;-2.41;70.94;94780.66;5024737;28;20022;-74
2022/01/16 05:43:06;;;;;;;13.75;6.90;;;;;;;-2.47;70.60;94776.28;5024790;28;20033;-74
2022/01/16 05:45:32;;;;;;;13.55;7.47;;;;;;;-2.38;70.75;94785.47;5024425;28;20033;-74
2022/01/16 05:47:58;;;;;;;16.15;8.40;;;;;;;-2.31;70.44;94790.66;5024579;28;20048;-73
2022/01/16 05:50:24;;;;;;;13.45;7.07;;;;;;;-2.28;70.24;94793.66;5024575;28;20026;-73
2022/01/16 05:52:50;;;;;;;19.13;7.03;;;;;;;-2.35;69.80;94794.69;5024681;28;20219;-75
2022/01/16 05:55:17;;;;;;;17.17;8.07;;;;;;;-2.34;69.85;94796.28;5024445;28;20025;-75
2022/01/16 05:57:44;;;;;;;22.33;8.68;;;;;;;-2.34;69.37;94802.31;5039949;28;20040;-75
2022/01/16 06:00:11;;;;;;;13.82;7.22;;;;;;;-2.34;69.29;94807.56;5024160;28;20231;-75
2022/01/16 06:02:36;;;;;;;17.05;7.50;;;;;;;-2.29;68.97;94815.53;5024492;28;20088;-75
2022/01/16 06:05:03;;;;;;;16.65;7.75;;;;;;;-2.34;68.76;94809.34;5024213;28;20029;-75
2022/01/16 06:07:29;;;;;;;16.80;7.47;;;;;;;-2.31;68.30;94808.94;5024028;28;20029;-73
2022/01/16 06:09:55;;;;;;;15.23;7.07;;;;;;;-2.22;68.14;94807.66;5024101;28;20030;-74
2022/01/16 06:12:21;;;;;;;18.67;7.57;;;;;;;-2.11;68.33;94801.78;5024022;28;20062;-74
2022/01/16 06:14:46;;;;;;;11.43;5.72;;;;;;;-2.02;67.16;94797.09;5023980;28;20335;-74
2022/01/16 06:17:12;;;;;;;12.48;5.82;;;;;;;-1.97;66.49;94802.50;5024161;28;20026;-74
2022/01/16 06:19:38;;;;;;;13.15;6.60;;;;;;;-2.04;66.31;94812.19;5024134;28;20022;-73
2022/01/16 06:22:04;;;;;;;12.77;6.07;;;;;;;-2.04;65.56;94804.34;5023874;28;20026;-73
2022/01/16 06:24:29;;;;;;;11.18;5.47;;;;;;;-2.00;65.35;94800.28;5023901;28;20097;-73
2022/01/16 06:26:55;;;;;;;12.52;5.90;;;;;;;-2.03;64.92;94803.34;5023892;28;20025;-74
2022/01/16 06:29:21;;;;;;;18.02;7.03;;;;;;;-1.99;64.46;94812.34;5023794;28;20022;-74
2022/01/16 06:31:47;;;;;;;17.38;7.10;;;;;;;-1.97;63.66;94818.19;5023798;28;20025;-73
2022/01/16 06:34:12;;;;;;;12.10;5.68;;;;;;;-2.09;64.82;94814.63;5023589;28;20316;-74
2022/01/16 06:36:39;;;;;;;17.77;7.00;;;;;;;-2.03;65.16;94826.84;5023877;28;20075;-74
2022/01/16 06:39:07;;;;;;;11.30;5.40;;;;;;;-2.04;65.32;94828.66;5023877;28;20029;-74
2022/01/16 06:41:33;;;;;;;16.25;6.80;;;;;;;-2.06;65.72;94833.28;5023451;28;20085;-74
2022/01/16 06:43:59;;;;;;;14.70;6.05;;;;;;;-2.00;65.32;94836.88;5023232;28;20068;-74
2022/01/16 06:46:24;;;;;;;15.48;5.53;;;;;;;-1.99;65.48;94830.66;5023592;28;20022;-74
2022/01/16 06:48:50;;;;;;;12.02;5.85;;;;;;;-1.97;65.07;94833.84;5023603;28;20092;-74
2022/01/16 06:51:19;;;;;;;16.33;7.35;;;;;;;-1.95;65.46;94824.00;5022318;28;20017;-75
2022/01/16 06:53:46;;;;;;;12.30;5.57;;;;;;;-1.94;65.34;94822.97;5023447;28;20083;-74
2022/01/16 06:56:11;;;;;;;11.05;6.07;;;;;;;-1.87;64.90;94830.78;5023018;28;20021;-74
2022/01/16 06:58:37;;;;;;;11.73;5.78;;;;;;;-1.77;64.94;94835.50;5023477;28;20028;-74
2022/01/16 07:01:02;;;;;;;17.45;6.18;;;;;;;-1.72;64.95;94838.31;5023238;28;20026;-74
2022/01/16 07:03:28;;;;;;;11.63;6.57;;;;;;;-1.64;65.33;94840.66;5023326;28;20073;-74
2022/01/16 07:05:54;;;;;;;15.98;6.55;;;;;;;-1.59;64.68;94846.03;5023210;28;20025;-74
2022/01/16 07:08:22;;;;;;;13.85;6.20;;;;;;;-1.58;64.90;94847.66;5023116;28;20071;-74
2022/01/16 07:10:50;;;;;;;14.82;7.90;;;;;;;-1.47;64.53;94848.78;5023078;28;20033;-76
2022/01/16 07:13:16;;;;;;;14.40;6.53;;;;;;;-1.48;64.52;94860.25;5023032;28;20056;-76
2022/01/16 07:15:42;;;;;;;15.57;5.88;;;;;;;-1.46;64.43;94856.41;5023317;28;20022;-75
2022/01/16 07:18:07;;;;;;;9.05;5.15;;;;;;;-1.41;63.98;94858.38;5023058;28;20379;-75
2022/01/16 07:20:32;;;;;;;13.68;6.57;;;;;;;-1.42;64.62;94852.34;5022755;28;20018;-75
2022/01/16 07:22:58;;;;;;;12.45;5.75;;;;;;;-1.43;64.31;94855.97;5022710;28;20049;-75
2022/01/16 07:25:23;;;;;;;10.07;5.60;;;;;;;-1.45;64.64;94852.75;5022931;28;20018;-74
2022/01/16 07:27:49;;;;;;;12.07;5.88;;;;;;;-1.54;65.01;94851.44;5022801;28;20017;-75
2022/01/16 07:30:14;;;;;;;14.65;6.07;;;;;;;-1.49;65.35;94851.59;5022767;28;20022;-77
2022/01/16 07:32:40;;;;;;;9.82;5.60;;;;;;;-1.56;65.22;94850.84;5022981;28;20064;-77
2022/01/16 07:35:06;;;;;;;13.73;6.28;;;;;;;-1.52;65.20;94861.69;5022823;28;20036;-77
2022/01/16 07:37:31;;;;;;;14.75;6.13;;;;;;;-1.42;65.02;94856.78;5022701;28;20018;-77
2022/01/16 07:39:57;;;;;;;14.77;6.28;;;;;;;-1.33;64.76;94865.16;5022680;28;20318;-77
2022/01/16 07:42:22;;;;;;;12.93;5.47;;;;;;;-1.35;64.95;94862.75;5022758;28;20022;-77
2022/01/16 07:44:48;;;;;;;13.70;7.30;;;;;;;-1.28;64.73;94868.75;5022663;28;20023;-77
2022/01/16 07:47:14;;;;;;;16.13;6.32;;;;;;;-1.21;64.67;94874.69;5022475;28;20217;-75
2022/01/16 07:49:40;;;;;;;12.43;6.38;;;;;;;-1.15;64.91;94867.81;5022908;28;20022;-75
2022/01/16 07:52:05;;;;;;;11.70;5.78;;;;;;;-1.09;64.11;94874.81;5022652;28;20022;-75
2022/01/16 07:54:31;;;;;;;10.95;6.05;;;;;;;-1.10;64.22;94875.00;5022525;28;20041;-77
2022/01/16 07:56:56;;;;;;;13.05;5.75;;;;;;;-1.03;63.86;94879.19;5025451;28;20041;-76
2022/01/16 07:59:22;;;;;;;12.43;6.88;;;;;;;-1.07;63.85;94885.06;5042059;28;20017;-80
2022/01/16 08:01:47;;;;;;;15.68;6.00;;;;;;;-1.09;63.76;94893.13;5026566;28;20029;-77
2022/01/16 08:04:12;;;;;;;12.73;6.95;;;;;;;-1.12;64.86;94877.88;5041860;28;20071;-77
2022/01/16 08:06:38;;;;;;;19.98;7.07;;;;;;;-1.17;63.90;94888.16;5026713;28;20022;-77
2022/01/16 08:09:03;;;;;;;15.70;7.20;;;;;;;-1.16;64.53;94887.16;5026287;28;20064;-76
2022/01/16 08:11:29;;;;;;;17.70;7.30;;;;;;;-1.09;64.38;94879.25;5026362;28;20025;-75
2022/01/16 08:13:54;;;;;;;14.98;7.38;;;;;;;-0.89;63.74;94873.84;5026252;28;20045;-75
2022/01/16 08:16:19;;;;;;;16.17;7.20;;;;;;;-0.79;63.71;94882.00;5026311;28;20025;-75
2022/01/16 08:18:45;;;;;;;12.80;5.88;;;;;;;-0.75;65.96;94884.94;5026469;28;20021;-75
2022/01/16 08:21:10;;;;;;;18.13;7.32;;;;;;;-0.63;63.42;94888.47;5026576;28;20324;-75
2022/01/16 08:23:36;;;;;;;15.45;7.05;;;;;;;-0.47;63.55;94889.69;5026641;28;20029;-75
2022/01/16 08:26:03;;;;;;;13.23;6.72;;;;;;;-0.31;62.54;94885.69;5026340;28;20201;-75
2022/01/16 08:28:29;;;;;;;13.63;6.85;;;;;;;-0.33;61.51;94875.44;5026518;28;20029;-75
2022/01/16 08:30:54;;;;;;;15.30;6.82;;;;;;;-0.22;62.18;94874.69;5026144;28;20216;-75
2022/01/16 08:33:20;;;;;;;13.93;6.72;;;;;;;-0.28;61.44;94870.34;5026258;28;20076;-75
2022/01/16 08:35:45;;;;;;;13.82;6.18;;;;;;;-0.36;60.87;94878.50;5026016;28;20022;-75
2022/01/16 08:38:11;;;;;;;14.90;7.18;;;;;;;-0.29;61.34;94876.59;5026063;28;20033;-75
2022/01/16 08:40:36;;;;;;;17.02;7.03;;;;;;;-0.16;60.63;94869.59;5024950;28;20112;-74
2022/01/16 08:43:08;;;;;;;21.08;7.57;;;;;;;-0.05;61.04;94861.00;5026137;28;20056;-75
2022/01/16 08:45:36;;;;;;;14.30;7.28;;;;;;;0.06;60.17;94870.72;5026021;28;20026;-75
2022/01/16 08:48:01;;;;;;;16.35;6.75;;;;;;;0.12;59.91;94877.72;5025883;28;20036;-75
2022/01/16 08:50:27;;;;;;;13.80;6.00;;;;;;;0.08;59.88;94879.19;5025947;28;20014;-75
2022/01/16 08:52:53;;;;;;;12.38;6.88;;;;;;;0.12;59.79;94869.84;5025825;28;20026;-75
2022/01/16 08:55:18;;;;;;;10.52;6.32;;;;;;;0.22;60.38;94860.63;5025805;28;20093;-75
2022/01/16 08:57:44;;;;;;;12.63;7.07;;;;;;;0.36;59.80;94852.34;5025673;28;20022;-75
2022/01/16 09:00:10;;;;;;;16.52;7.20;;;;;;;0.58;59.27;94855.22;5025621;28;20029;-75
2022/01/16 09:02:36;;;;;;;16.83;7.25;;;;;;;0.66;58.18;94851.47;5025646;28;20037;-75
2022/01/16 09:05:03;;;;;;;13.50;7.15;;;;;;;0.72;57.73;94852.41;5025734;28;20030;-75
2022/01/16 09:07:29;;;;;;;11.80;6.03;;;;;;;0.77;57.84;94844.63;5025276;28;20268;-75
2022/01/16 09:09:56;;;;;;;13.60;6.65;;;;;;;0.80;58.00;94849.44;5025434;28;20024;-75
2022/01/16 09:12:23;;;;;;;15.88;6.18;;;;;;;0.88;57.96;94856.19;5025242;28;20232;-76
2022/01/16 09:14:48;;;;;;;17.73;7.80;;;;;;;0.99;57.22;94850.94;5025411;28;20037;-74
2022/01/16 09:17:14;;;;;;;16.15;6.90;;;;;;;1.03;57.07;94847.84;5025486;28;20045;-75
2022/01/16 09:19:39;;;;;;;16.02;7.40;;;;;;;1.11;57.15;94839.63;5025662;28;20018;-75
2022/01/16 09:22:05;;;;;;;15.43;8.70;;;;;;;1.26;56.93;94839.94;5024893;28;20040;-75
2022/01/16 09:24:31;;;;;;;15.95;8.80;;;;;;;1.27;56.72;94825.78;5025008;28;20076;-76
2022/01/16 09:26:56;;;;;;;16.73;8.45;;;;;;;1.34;56.82;94829.13;5024995;28;20339;-75
2022/01/16 09:29:22;;;;;;;16.58;8.55;;;;;;;1.32;57.20;94827.72;5024557;28;20045;-75
2022/01/16 09:31:47;;;;;;;18.27;9.30;;;;;;;1.32;57.49;94828.53;5024807;28;20056;-75
2022/01/16 09:34:12;;;;;;;16.83;9.18;;;;;;;1.49;57.16;94825.19;5024872;28;20018;-75
2022/01/16 09:36:38;;;;;;;28.40;9.90;;;;;;;1.52;56.81;94828.13;5024775;28;20018;-75
2022/01/16 09:39:03;;;;;;;35.25;10.38;;;;;;;1.52;57.56;94825.50;5024677;28;20028;-75
2022/01/16 09:41:29;;;;;;;30.00;11.60;;;;;;;1.55;57.51;94822.44;5024602;28;20029;-75
2022/01/16 09:43:55;;;;;;;20.50;11.23;;;;;;;1.66;57.59;94807.66;5024766;28;20029;-75
2022/01/16 09:46:20;;;;;;;20.98;10.82;;;;;;;1.81;56.74;94809.75;5024485;28;20022;-74
2022/01/16 09:48:46;;;;;;;26.15;11.75;;;;;;;1.98;56.61;94810.63;5024539;28;20017;-74
2022/01/16 09:51:11;;;;;;;23.42;10.18;;;;;;;1.97;56.00;94818.72;5024637;28;20071;-75
2022/01/16 09:53:41;;;;;;;20.10;10.43;;;;;;;1.98;54.82;94809.81;5024871;28;20029;-75
2022/01/16 09:56:07;;;;;;;19.80;10.40;;;;;;;1.90;55.23;94800.47;5024722;28;20327;-75
2022/01/16 09:58:34;;;;;;;20.48;10.45;;;;;;;1.95;55.21;94805.03;5024463;28;20049;-76
2022/01/16 10:01:00;;;;;;;19.73;9.65;;;;;;;2.01;55.56;94793.56;5024218;28;20106;-74
2022/01/16 10:03:32;;;;;;;23.00;10.93;;;;;;;2.18;55.91;94798.88;5024379;28;20032;-75
2022/01/16 10:06:19;;;;;;;18.65;9.75;;;;;;;2.34;54.33;94790.19;5024213;28;20072;-76
2022/01/16 10:08:46;;;;;;;24.55;9.65;;;;;;;2.37;54.02;94788.91;5024149;28;20062;-75
2022/01/16 10:11:35;;;;;;;20.65;9.30;;;;;;;2.36;54.17;94776.78;5024439;28;20095;-76
2022/01/16 10:14:08;;;;;;;17.83;10.20;;;;;;;2.39;53.28;94774.47;5024010;28;20056;-76
2022/01/16 10:16:37;;;;;;;17.60;10.05;;;;;;;2.37;53.88;94784.44;5039513;28;20037;-75
2022/01/16 10:19:05;;;;;;;24.65;11.27;;;;;;;2.41;53.78;94776.88;5023651;28;20101;-76
2022/01/16 10:21:37;;;;;;;21.00;9.15;;;;;;;2.47;53.69;94775.13;5023829;28;20033;-76
2022/01/16 10:24:34;;;;;;;18.05;9.05;;;;;;;2.43;52.94;94785.34;5024469;28;20244;-75
2022/01/16 10:27:08;;;;;;;24.25;10.32;;;;;;;2.40;53.52;94776.09;5023478;28;20030;-76
2022/01/16 10:29:45;;;;;;;20.48;9.85;;;;;;;2.25;53.88;94765.31;5024038;28;20021;-75
2022/01/16 10:32:24;;;;;;;19.77;9.80;;;;;;;2.39;54.13;94763.97;5039509;28;20052;-76
2022/01/16 10:34:52;;;;;;;32.35;11.27;;;;;;;2.58;53.41;94761.88;5039143;28;20025;-76
2022/01/16 10:37:26;;;;;;;21.08;9.50;;;;;;;2.76;53.18;94746.88;5023977;28;20263;-76
2022/01/16 10:40:00;;;;;;;22.25;10.40;;;;;;;2.96;52.93;94747.16;5023814;28;20029;-76
2022/01/16 10:42:29;;;;;;;21.60;10.88;;;;;;;3.05;52.62;94742.25;5039228;28;20018;-76
2022/01/16 10:45:10;;;;;;;18.80;10.23;;;;;;;3.15;51.61;94747.63;5023920;28;20029;-76
2022/01/16 10:47:41;;;;;;;21.08;10.23;;;;;;;3.23;51.30;94746.44;5023845;28;20263;-75
2022/01/16 10:50:09;;;;;;;27.20;12.55;;;;;;;3.25;51.31;94746.97;5023841;28;20025;-76
2022/01/16 10:52:48;;;;;;;21.92;11.52;;;;;;;3.27;50.61;94741.47;5023799;28;20034;-75
2022/01/16 10:55:13;;;;;;;16.45;9.18;;;;;;;3.21;50.83;94753.78;5023524;28;20029;-74
2022/01/16 10:57:40;;;;;;;17.58;9.90;;;;;;;3.22;50.96;94739.56;5022434;28;20286;-74
2022/01/16 11:00:08;;;;;;;19.50;10.10;;;;;;;3.30;50.72;94736.50;5023123;28;20022;-77
2022/01/16 11:02:34;;;;;;;28.00;9.88;;;;;;;3.45;50.38;94721.91;5023238;28;20097;-74
2022/01/16 11:05:16;;;;;;;17.77;9.75;;;;;;;3.59;50.13;94723.13;5022882;28;20049;-78
2022/01/16 11:07:42;;;;;;;;;;;;;;;3.67;49.23;94730.59;5023524;28;20032;-75
2022/01/16 11:10:28;;;;;;;19.65;9.73;;;;;;;3.73;49.56;94715.63;5021724;28;19941;-75
2022/01/16 11:12:55;;;;;;;17.17;9.32;;;;;;;3.89;49.14;94717.38;5019952;28;20113;-75
2022/01/16 11:15:21;;;;;;;19.63;9.65;;;;;;;4.03;48.53;94715.13;5021366;28;20049;-75
2022/01/16 11:17:47;;;;;;;20.23;9.93;;;;;;;4.11;47.85;94713.84;5022279;28;20021;-75
2022/01/16 11:20:14;;;;;;;22.73;10.02;;;;;;;4.13;48.17;94707.28;5020600;28;20022;-76
2022/01/16 11:23:29;;;;;;;21.70;10.52;;;;;;;4.19;48.19;94706.28;5021206;28;20132;-75
2022/01/16 11:25:36;;;;;;;21.95;9.30;;;;;;;4.28;47.59;94703.97;5018752;28;20067;-75
2022/01/16 11:28:14;;;;;;;20.70;10.10;;;;;;;4.30;48.41;94701.88;5022078;28;20312;-75
2022/01/16 11:30:43;;;;;;;21.25;10.32;;;;;;;4.40;47.47;94703.78;5021320;28;20074;-75
2022/01/16 11:33:09;;;;;;;23.08;10.68;;;;;;;4.49;47.81;94693.56;5022108;28;20025;-75
2022/01/16 11:35:41;;;;;;;24.02;11.13;;;;;;;4.61;47.50;94687.03;5021382;28;20097;-75
2022/01/16 11:38:07;;;;;;;19.95;10.05;;;;;;;4.73;46.95;94684.19;5022651;28;20013;-75
2022/01/16 11:40:45;;;;;;;27.08;10.02;;;;;;;4.80;47.03;94682.13;5022515;28;20068;-75
2022/01/16 11:43:16;;;;;;;22.35;11.13;;;;;;;4.89;46.86;94681.66;5037900;28;20025;-75
2022/01/16 11:45:48;;;;;;;19.65;8.95;;;;;;;4.97;46.28;94678.53;5022631;28;20145;-75
2022/01/16 11:48:16;;;;;;;;;;;;;;;5.03;46.62;94683.56;5022888;28;20053;-75
2022/01/16 11:50:42;;;;;;;18.90;10.15;;;;;;;5.09;46.10;94671.16;5022547;28;19906;-76
2022/01/16 11:53:07;;;;;;;22.50;11.20;;;;;;;5.10;46.42;94677.25;5022546;28;20060;-76
2022/01/16 11:55:34;;;;;;;25.88;11.55;;;;;;;5.21;46.11;94676.22;5022254;28;20201;-75
2022/01/16 11:58:01;;;;;;;21.67;9.75;;;;;;;5.35;45.83;94673.88;5022465;28;20033;-75
2022/01/16 12:00:42;;;;;;;24.83;11.27;;;;;;;5.47;45.45;94671.03;5022468;28;20029;-75
2022/01/16 12:03:34;;;;;;;27.35;12.00;;;;;;;5.37;44.62;94677.88;5022572;28;20033;-75
2022/01/16 12:06:32;;;;;;;18.48;10.20;;;;;;;5.41;44.42;94676.31;5022439;28;20366;-76
2022/01/16 12:09:00;;;;;;;22.35;11.02;;;;;;;5.50;44.30;94670.50;5022295;28;20022;-75
2022/01/16 12:11:37;;;;;;;21.98;10.60;;;;;;;5.53;43.82;94665.47;5022205;28;20090;-76
2022/01/16 12:14:03;;;;;;;28.83;11.15;;;;;;;5.46;43.99;94669.44;5022232;28;20329;-75